Time;durP1;ratioP1;P1;durP2;ratioP2;P2;SDS_P1;SDS_P2;PMS_P1;PMS_P2;Temp;Humidity;BMP_temperature;BMP_pressure;BME280_temperature;BME280_humidity;BME280_pressure;Samples;Min_cycle;Max_cycle;Signal;HPM_P1;HPM_P2
2023/05/25 00:04:09;;;;;;;14.65;4.50;;;;;;;;;;21002911;28;20067;-63
2023/05/25 00:14:10;;;;;;;13.30;4.45;;;;;;;;;;21002166;28;20454;-64
2023/05/25 00:24:11;;;;;;;13.70;4.05;;;;;;;;;;21000834;28;20056;-63
2023/05/25 00:34:12;;;;;;;10.80;4.38;;;;;;;;;;21000423;28;20044;-63
2023/05/25 00:44:14;;;;;;;9.10;3.65;;;;;;;;;;20999565;28;20044;-63
2023/05/25 00:54:15;;;;;;;9.35;3.45;;;;;;;;;;20998379;28;20434;-62
2023/05/25 01:04:17;;;;;;;12.25;4.18;;;;;;;;;;20996983;28;20087;-63
2023/05/25 01:14:20;;;;;;;9.73;3.38;;;;;;;;;;20996478;28;20040;-63
2023/05/25 01:24:29;;;;;;;8.32;4.18;;;;;;;;;;20995562;28;20060;-63
2023/05/25 01:34:31;;;;;;;13.00;3.90;;;;;;;;;;20996206;28;20040;-63
2023/05/25 01:44:33;;;;;;;11.70;4.57;;;;;;;;;;20994040;28;20063;-63
2023/05/25 01:54:40;;;;;;;8.45;3.53;;;;;;;;;;20994731;28;20044;-63
2023/05/25 02:04:42;;;;;;;12.93;3.88;;;;;;;;;;20994985;28;20084;-63
2023/05/25 02:14:47;;;;;;;7.28;3.47;;;;;;;;;;21009850;28;20493;-64
2023/05/25 02:24:48;;;;;;;8.48;3.72;;;;;;;;;;21008495;28;20170;-64
2023/05/25 02:34:49;;;;;;;10.68;3.85;;;;;;;;;;21008377;28;20524;-63
2023/05/25 02:44:50;;;;;;;7.53;2.85;;;;;;;;;;21006637;28;20083;-62
2023/05/25 02:54:51;;;;;;;11.20;4.03;;;;;;;;;;21005868;28;20036;-63
2023/05/25 03:04:52;;;;;;;8.57;3.88;;;;;;;;;;21005031;28;20110;-63
2023/05/25 03:14:53;;;;;;;8.95;4.10;;;;;;;;;;21004136;28;20138;-63
2023/05/25 03:24:54;;;;;;;7.50;4.05;;;;;;;;;;21002701;28;20056;-63
2023/05/25 03:34:56;;;;;;;12.15;4.78;;;;;;;;;;21003593;28;20049;-63
2023/05/25 03:44:57;;;;;;;18.58;4.05;;;;;;;;;;21001536;28;20040;-63
2023/05/25 03:55:00;;;;;;;12.18;4.00;;;;;;;;;;21002065;28;20123;-63
2023/05/25 04:05:01;;;;;;;10.73;3.38;;;;;;;;;;21001212;28;20049;-64
2023/05/25 04:15:04;;;;;;;15.20;3.88;;;;;;;;;;20998730;28;20049;-64
2023/05/25 04:25:07;;;;;;;10.98;3.60;;;;;;;;;;20998029;28;20068;-62
2023/05/25 04:35:08;;;;;;;10.32;3.25;;;;;;;;;;20997730;28;20103;-63
2023/05/25 04:45:09;;;;;;;10.65;3.67;;;;;;;;;;20997416;28;20048;-63
2023/05/25 04:55:11;;;;;;;11.55;3.25;;;;;;;;;;20998581;28;20051;-63
2023/05/25 05:05:12;;;;;;;13.18;3.35;;;;;;;;;;20997847;28;20611;-63
2023/05/25 05:15:13;;;;;;;17.55;4.32;;;;;;;;;;20997692;28;20562;-63
2023/05/25 05:25:14;;;;;;;14.13;3.97;;;;;;;;;;20996336;28;20057;-63
2023/05/25 05:35:15;;;;;;;11.43;4.20;;;;;;;;;;20996398;28;20118;-63
2023/05/25 05:45:16;;;;;;;15.60;4.45;;;;;;;;;;21006641;28;20055;-62
2023/05/25 05:55:19;;;;;;;11.52;3.70;;;;;;;;;;21012806;28;20045;-63
2023/05/25 06:05:20;;;;;;;10.25;3.75;;;;;;;;;;21011934;28;20076;-64
2023/05/25 06:15:21;;;;;;;14.60;4.47;;;;;;;;;;21011148;28;20102;-63
2023/05/25 06:25:22;;;;;;;12.00;4.68;;;;;;;;;;21009395;28;20052;-63
2023/05/25 06:35:23;;;;;;;11.00;3.72;;;;;;;;;;21008926;28;20040;-64
2023/05/25 06:45:25;;;;;;;9.23;4.00;;;;;;;;;;21007779;28;20505;-63
2023/05/25 06:55:26;;;;;;;11.25;3.55;;;;;;;;;;21006517;28;20048;-63
2023/05/25 07:05:27;;;;;;;11.90;3.88;;;;;;;;;;21006151;28;20044;-63
2023/05/25 07:15:28;;;;;;;13.13;4.03;;;;;;;;;;21006322;28;20052;-63
2023/05/25 07:25:29;;;;;;;14.48;4.43;;;;;;;;;;21006200;28;20065;-64
2023/05/25 07:35:30;;;;;;;8.82;4.35;;;;;;;;;;21005316;28;20698;-63
2023/05/25 07:45:31;;;;;;;14.45;4.78;;;;;;;;;;21004081;28;20477;-63
2023/05/25 07:55:32;;;;;;;7.82;4.32;;;;;;;;;;21003397;28;20401;-63
2023/05/25 08:05:33;;;;;;;10.50;4.80;;;;;;;;;;21002308;28;20481;-62
2023/05/25 08:15:34;;;;;;;13.05;5.10;;;;;;;;;;21001919;28;20504;-63
2023/05/25 08:25:36;;;;;;;12.70;5.65;;;;;;;;;;21000475;28;20524;-63
2023/05/25 08:35:39;;;;;;;9.98;4.68;;;;;;;;;;21000427;28;20485;-64
2023/05/25 08:45:42;;;;;;;10.80;4.53;;;;;;;;;;20999652;28;20141;-63
2023/05/25 08:55:44;;;;;;;11.70;5.10;;;;;;;;;;20998544;28;20067;-63
2023/05/25 09:05:46;;;;;;;11.60;4.60;;;;;;;;;;20997722;28;20067;-63
2023/05/25 09:15:47;;;;;;;9.77;4.03;;;;;;;;;;20996673;28;20056;-63
2023/05/25 09:25:50;;;;;;;10.20;4.40;;;;;;;;;;20996071;28;20452;-63
2023/05/25 09:35:51;;;;;;;13.05;4.80;;;;;;;;;;20996632;28;20551;-64
2023/05/25 09:45:52;;;;;;;11.52;5.47;;;;;;;;;;20996332;28;20519;-71
2023/05/25 09:55:54;;;;;;;10.10;4.68;;;;;;;;;;20995502;28;20047;-72
2023/05/25 10:05:55;;;;;;;14.48;6.22;;;;;;;;;;20994501;28;20049;-68
2023/05/25 10:15:56;;;;;;;11.55;5.20;;;;;;;;;;20994947;28;20049;-68
2023/05/25 10:26:00;;;;;;;11.88;5.60;;;;;;;;;;20996102;28;20110;-65
2023/05/25 10:36:02;;;;;;;14.23;5.93;;;;;;;;;;21009481;28;20450;-68
2023/05/25 10:46:05;;;;;;;10.95;6.32;;;;;;;;;;21008473;28;20389;-67
2023/05/25 10:56:09;;;;;;;20.33;6.53;;;;;;;;;;21006373;28;20066;-61
2023/05/25 11:06:10;;;;;;;14.50;6.10;;;;;;;;;;21004834;28;20052;-61
2023/05/25 11:16:20;;;;;;;11.82;6.63;;;;;;;;;;21020293;28;20052;-62
2023/05/25 11:26:23;;;;;;;21.20;6.88;;;;;;;;;;21031482;28;20089;-71
2023/05/25 11:36:25;;;;;;;12.02;6.43;;;;;;;;;;21072248;28;20051;-67
2023/05/25 11:46:26;;;;;;;12.43;5.50;;;;;;;;;;21052015;28;20483;-64
2023/05/25 11:56:31;;;;;;;15.75;6.28;;;;;;;;;;21001310;28;20123;-64
2023/05/25 12:06:33;;;;;;;15.07;5.78;;;;;;;;;;21001718;28;20044;-64
2023/05/25 12:16:37;;;;;;;14.40;5.40;;;;;;;;;;21001514;28;20049;-66
2023/05/25 12:26:48;;;;;;;13.45;6.18;;;;;;;;;;20999355;28;20148;-66
2023/05/25 12:36:53;;;;;;;17.30;5.90;;;;;;;;;;20998817;28;20390;-65
2023/05/25 12:46:55;;;;;;;14.13;4.35;;;;;;;;;;20998327;28;20040;-67
2023/05/25 12:56:56;;;;;;;13.68;4.93;;;;;;;;;;20996990;28;20041;-66
2023/05/25 13:06:57;;;;;;;11.88;4.32;;;;;;;;;;20998425;28;20052;-66
2023/05/25 13:16:59;;;;;;;11.50;3.22;;;;;;;;;;20996756;28;20048;-65
2023/05/25 13:27:00;;;;;;;17.75;3.78;;;;;;;;;;20996431;28;20056;-66
2023/05/25 13:37:01;;;;;;;24.05;5.60;;;;;;;;;;20996364;28;20049;-66
2023/05/25 13:47:02;;;;;;;8.25;3.38;;;;;;;;;;20995550;28;20397;-65
2023/05/25 13:57:03;;;;;;;9.63;3.38;;;;;;;;;;20996040;28;20051;-66
2023/05/25 14:07:04;;;;;;;10.02;4.18;;;;;;;;;;21007129;28;20477;-66
2023/05/25 14:17:06;;;;;;;9.82;4.35;;;;;;;;;;21011886;28;20053;-65
2023/05/25 14:27:07;;;;;;;8.48;4.07;;;;;;;;;;21010025;28;20441;-66
2023/05/25 14:37:08;;;;;;;11.43;3.60;;;;;;;;;;21010241;28;20052;-66
2023/05/25 14:47:09;;;;;;;9.00;3.58;;;;;;;;;;21009458;28;20048;-66
2023/05/25 14:57:11;;;;;;;8.27;3.88;;;;;;;;;;21008845;28;20040;-66
2023/05/25 15:07:13;;;;;;;10.80;4.00;;;;;;;;;;21007960;28;20469;-65
2023/05/25 15:17:14;;;;;;;7.60;3.20;;;;;;;;;;21006047;28;20049;-66
2023/05/25 15:27:15;;;;;;;6.93;2.85;;;;;;;;;;21006129;28;20083;-66
2023/05/25 15:37:16;;;;;;;7.53;2.85;;;;;;;;;;21004575;28;20041;-67
2023/05/25 15:47:18;;;;;;;10.35;3.55;;;;;;;;;;21004060;28;20048;-66
2023/05/25 15:57:19;;;;;;;8.65;2.95;;;;;;;;;;21003434;28;20040;-67
2023/05/25 16:07:20;;;;;;;6.13;2.90;;;;;;;;;;21001753;28;20051;-65
2023/05/25 16:17:21;;;;;;;11.98;3.92;;;;;;;;;;21001224;28;20063;-63
2023/05/25 16:27:22;;;;;;;9.40;3.60;;;;;;;;;;20999932;28;20080;-62
2023/05/25 16:37:23;;;;;;;8.52;3.05;;;;;;;;;;20999878;28;20139;-61
2023/05/25 16:47:24;;;;;;;6.47;3.33;;;;;;;;;;20999357;28;20484;-62
2023/05/25 16:57:25;;;;;;;10.10;3.63;;;;;;;;;;20997590;28;20036;-61
2023/05/25 17:07:27;;;;;;;8.88;2.50;;;;;;;;;;20971093;28;20045;-66
2023/05/25 17:17:28;;;;;;;6.93;3.00;;;;;;;;;;20963127;28;20501;-65
2023/05/25 17:27:30;;;;;;;6.20;2.88;;;;;;;;;;20975057;28;20078;-62
2023/05/25 17:37:31;;;;;;;8.70;3.00;;;;;;;;;;20995107;28;20127;-69
2023/05/25 17:47:32;;;;;;;7.70;3.00;;;;;;;;;;20996031;28;20044;-66
2023/05/25 17:57:33;;;;;;;8.70;4.50;;;;;;;;;;20974355;28;20498;-65
2023/05/25 18:07:34;;;;;;;9.05;3.67;;;;;;;;;;20960267;28;20482;-70
2023/05/25 18:17:35;;;;;;;10.40;3.67;;;;;;;;;;20971422;28;20060;-71
2023/05/25 18:27:36;;;;;;;6.22;3.33;;;;;;;;;;20977311;28;20048;-67
2023/05/25 18:37:37;;;;;;;7.63;4.20;;;;;;;;;;20994274;28;20079;-64
2023/05/25 18:47:39;;;;;;;10.93;3.33;;;;;;;;;;20994538;28;20105;-66
2023/05/25 18:57:40;;;;;;;9.25;4.53;;;;;;;;;;21008001;28;20072;-66
2023/05/25 19:07:42;;;;;;;6.63;3.40;;;;;;;;;;21007510;28;20072;-66
2023/05/25 19:17:45;;;;;;;10.60;3.88;;;;;;;;;;21006719;28;20091;-66
2023/05/25 19:27:46;;;;;;;5.53;3.53;;;;;;;;;;21005091;28;20044;-65
2023/05/25 19:37:47;;;;;;;4.65;2.60;;;;;;;;;;21003766;28;20124;-66
2023/05/25 19:47:49;;;;;;;7.40;2.10;;;;;;;;;;21001943;28;20040;-65
2023/05/25 19:57:50;;;;;;;5.57;2.85;;;;;;;;;;21002376;28;20513;-66
2023/05/25 20:07:51;;;;;;;5.15;2.95;;;;;;;;;;21000836;28;20478;-65
2023/05/25 20:17:52;;;;;;;7.13;2.83;;;;;;;;;;21001569;28;20136;-64
2023/05/25 20:27:53;;;;;;;4.78;2.45;;;;;;;;;;20999705;28;20457;-65
2023/05/25 20:37:54;;;;;;;4.13;2.15;;;;;;;;;;20997523;28;20051;-65
2023/05/25 20:48:02;;;;;;;7.18;2.30;;;;;;;;;;20997556;28;20040;-65
2023/05/25 20:58:04;;;;;;;5.38;3.10;;;;;;;;;;20998473;28;20396;-65
2023/05/25 21:08:05;;;;;;;7.32;2.92;;;;;;;;;;20996366;28;20102;-65
2023/05/25 21:18:07;;;;;;;6.15;2.67;;;;;;;;;;20996020;28;20076;-65
2023/05/25 21:28:09;;;;;;;7.55;2.60;;;;;;;;;;20996723;28;20064;-65
2023/05/25 21:38:10;;;;;;;5.82;2.58;;;;;;;;;;20993928;28;20044;-65
2023/05/25 21:48:11;;;;;;;5.00;2.47;;;;;;;;;;20995143;28;20056;-65
2023/05/25 21:58:13;;;;;;;7.30;2.20;;;;;;;;;;20993577;28;20050;-66
2023/05/25 22:08:14;;;;;;;9.35;2.20;;;;;;;;;;20994563;28;20063;-65
2023/05/25 22:18:16;;;;;;;8.98;3.20;;;;;;;;;;20993217;28;20147;-65
2023/05/25 22:28:17;;;;;;;6.53;2.28;;;;;;;;;;21005287;28;20053;-66
2023/05/25 22:38:18;;;;;;;4.78;2.40;;;;;;;;;;21010118;28;20048;-65
2023/05/25 22:48:19;;;;;;;7.05;2.30;;;;;;;;;;21009619;28;20068;-65
2023/05/25 22:58:20;;;;;;;9.18;2.83;;;;;;;;;;21009046;28;20072;-64
2023/05/25 23:08:21;;;;;;;4.32;2.22;;;;;;;;;;21008301;28;20128;-65
2023/05/25 23:18:22;;;;;;;8.00;2.28;;;;;;;;;;21008837;28;20409;-65
2023/05/25 23:28:23;;;;;;;4.32;2.08;;;;;;;;;;21005217;28;20056;-65
2023/05/25 23:38:24;;;;;;;4.00;2.30;;;;;;;;;;21005306;28;20052;-66
2023/05/25 23:48:25;;;;;;;6.78;2.60;;;;;;;;;;21003917;28;20063;-65
2023/05/25 23:58:27;;;;;;;8.30;3.28;;;;;;;;;;21004575;28;20044;-66
